Time;durP1;ratioP1;P1;durP2;ratioP2;P2;SDS_P1;SDS_P2;PMS_P1;PMS_P2;Temp;Humidity;BMP_temperature;BMP_pressure;BME280_temperature;BME280_humidity;BME280_pressure;Samples;Min_cycle;Max_cycle;Signal;HPM_P1;HPM_P2
2021/09/29 00:01:40;;;;;;;7.93;1.87;;;14.70;99.90;;;;;;5050632;28;20181;-76
2021/09/29 00:04:06;;;;;;;4.33;1.37;;;14.70;99.90;;;;;;5051701;28;20211;-76
2021/09/29 00:06:32;;;;;;;2.67;1.10;;;14.70;99.90;;;;;;5051676;28;20165;-76
2021/09/29 00:08:57;;;;;;;3.80;1.40;;;14.70;99.90;;;;;;5050182;28;20165;-75
2021/09/29 00:11:23;;;;;;;3.63;1.10;;;14.70;99.90;;;;;;5051594;28;20192;-76
2021/09/29 00:13:49;;;;;;;4.43;1.53;;;14.70;99.90;;;;;;5051666;28;20193;-76
2021/09/29 00:16:15;;;;;;;4.63;1.20;;;14.70;99.90;;;;;;5051918;28;20208;-76
2021/09/29 00:18:41;;;;;;;3.63;1.20;;;14.70;99.90;;;;;;5051880;28;20177;-76
2021/09/29 00:21:08;;;;;;;4.40;1.37;;;14.70;99.90;;;;;;5055349;28;20567;-76
2021/09/29 00:23:34;;;;;;;3.00;1.30;;;14.70;99.90;;;;;;5050057;28;20627;-76
2021/09/29 00:25:59;;;;;;;8.60;1.37;;;14.70;99.90;;;;;;5050411;28;20571;-76
2021/09/29 00:28:25;;;;;;;2.77;1.20;;;14.70;99.90;;;;;;5051397;28;20560;-75
2021/09/29 00:31:01;;;;;;;7.37;1.60;;;14.60;99.90;;;;;;5051221;28;20165;-76
2021/09/29 00:33:26;;;;;;;4.33;1.20;;;14.60;99.90;;;;;;5051261;28;20215;-76
2021/09/29 00:35:52;;;;;;;2.80;1.40;;;14.60;99.90;;;;;;5050184;28;20971;-76
2021/09/29 00:38:18;;;;;;;5.10;1.73;;;14.60;99.90;;;;;;5050061;28;20175;-76
2021/09/29 00:40:43;;;;;;;4.10;2.10;;;14.60;99.90;;;;;;5051036;28;20226;-76
2021/09/29 00:43:09;;;;;;;3.80;1.23;;;14.60;99.90;;;;;;5051239;28;20192;-76
2021/09/29 00:45:35;;;;;;;3.80;1.20;;;14.50;99.90;;;;;;5050016;28;20200;-76
2021/09/29 00:48:01;;;;;;;2.33;0.90;;;14.50;99.90;;;;;;5051556;28;20637;-76
2021/09/29 00:50:27;;;;;;;6.03;1.70;;;14.50;99.90;;;;;;5050896;28;20221;-76
2021/09/29 00:52:52;;;;;;;6.63;1.53;;;14.50;99.90;;;;;;5051524;28;20180;-76
2021/09/29 00:55:18;;;;;;;6.30;1.67;;;14.40;99.90;;;;;;5051307;28;20929;-76
2021/09/29 00:57:44;;;;;;;4.10;1.47;;;14.40;99.90;;;;;;5056217;28;20180;-76
2021/09/29 01:00:10;;;;;;;6.23;1.77;;;14.30;99.90;;;;;;5050788;28;20173;-76
2021/09/29 01:02:36;;;;;;;6.38;1.55;;;14.30;99.90;;;;;;5051195;28;20206;-76
2021/09/29 01:05:04;;;;;;;5.22;1.60;;;14.30;99.90;;;;;;5050913;28;20207;-76
2021/09/29 01:07:38;;;;;;;2.67;1.33;;;14.30;99.90;;;;;;5054841;28;20231;-76
2021/09/29 01:10:37;;;;;;;3.70;1.98;;;14.30;99.90;;;;;;5054568;28;20161;-76
2021/09/29 01:13:19;;;;;;;4.53;1.10;;;14.20;99.90;;;;;;5054028;28;20169;-76
2021/09/29 01:15:48;;;;;;;3.92;1.77;;;14.20;99.90;;;;;;5055313;28;20566;-75
2021/09/29 01:18:18;;;;;;;2.97;1.30;;;14.20;99.90;;;;;;5055468;28;20251;-76
2021/09/29 01:20:52;;;;;;;4.07;1.45;;;14.20;99.90;;;;;;5054784;28;20177;-76
2021/09/29 01:23:36;;;;;;;4.28;1.45;;;14.10;99.90;;;;;;5054737;28;20200;-76
2021/09/29 01:26:12;;;;;;;3.25;2.10;;;14.10;99.90;;;;;;5054384;28;20165;-76
2021/09/29 01:28:46;;;;;;;4.77;1.87;;;14.10;99.90;;;;;;5055456;28;20168;-76
2021/09/29 01:31:13;;;;;;;3.80;1.77;;;14.10;99.90;;;;;;5053563;28;20730;-76
2021/09/29 01:33:41;;;;;;;3.40;1.30;;;14.10;99.90;;;;;;5057222;28;20611;-76
2021/09/29 01:36:07;;;;;;;2.72;1.50;;;14.10;99.90;;;;;;5054563;28;20192;-76
2021/09/29 01:38:34;;;;;;;4.30;1.50;;;14.10;99.90;;;;;;5054655;28;20169;-76
2021/09/29 01:41:01;;;;;;;2.28;1.20;;;14.00;99.90;;;;;;5054404;28;20212;-76
2021/09/29 01:43:29;;;;;;;5.85;1.23;;;14.00;99.90;;;;;;5054228;28;20208;-76
2021/09/29 01:45:55;;;;;;;7.13;1.25;;;14.00;99.90;;;;;;5054401;28;20532;-76
2021/09/29 01:48:21;;;;;;;4.63;2.00;;;14.00;99.90;;;;;;5036418;28;20263;-75
2021/09/29 01:50:50;;;;;;;3.33;1.57;;;14.00;99.90;;;;;;5052660;28;20571;-76
2021/09/29 01:53:17;;;;;;;6.30;1.60;;;14.00;99.90;;;;;;5054073;28;20912;-76
2021/09/29 01:55:44;;;;;;;3.90;1.63;;;14.00;99.90;;;;;;5053936;28;20570;-76
2021/09/29 01:58:10;;;;;;;3.05;1.63;;;14.00;99.90;;;;;;5052644;28;20567;-76
2021/09/29 02:00:39;;;;;;;3.65;1.30;;;14.00;99.90;;;;;;5052510;28;20180;-76
2021/09/29 02:03:05;;;;;;;4.45;1.40;;;14.00;99.90;;;;;;5053781;28;20537;-76
2021/09/29 02:05:35;;;;;;;3.10;1.50;;;14.00;99.90;;;;;;5053943;28;20165;-76
2021/09/29 02:08:04;;;;;;;5.43;1.58;;;14.00;99.90;;;;;;5054081;28;20200;-76
2021/09/29 02:10:31;;;;;;;3.30;1.50;;;14.00;99.90;;;;;;5058488;28;20180;-76
2021/09/29 02:12:57;;;;;;;3.13;1.70;;;14.00;99.90;;;;;;5053853;28;20571;-76
2021/09/29 02:15:23;;;;;;;4.27;1.60;;;14.00;99.90;;;;;;5053683;28;20591;-76
2021/09/29 02:17:49;;;;;;;5.50;1.73;;;14.00;99.90;;;;;;5035625;28;20602;-76
2021/09/29 02:20:15;;;;;;;2.90;1.37;;;14.00;99.90;;;;;;5053273;28;20581;-76
2021/09/29 02:22:41;;;;;;;3.57;1.57;;;14.00;99.90;;;;;;5053777;28;20560;-76
2021/09/29 02:25:08;;;;;;;4.23;1.33;;;14.10;99.90;;;;;;5053515;28;20714;-76
2021/09/29 02:27:34;;;;;;;5.43;2.22;;;14.10;99.90;;;;;;5053565;28;20574;-75
2021/09/29 02:30:00;;;;;;;4.70;1.90;;;14.10;99.90;;;;;;5051995;28;20173;-76
2021/09/29 02:32:26;;;;;;;3.30;1.48;;;14.10;99.90;;;;;;5053694;28;20169;-75
2021/09/29 02:34:51;;;;;;;3.63;1.70;;;14.10;99.90;;;;;;5053006;28;20680;-76
2021/09/29 02:37:17;;;;;;;4.20;1.80;;;14.10;99.90;;;;;;5052176;28;20256;-76
2021/09/29 02:39:43;;;;;;;3.93;1.60;;;14.10;99.90;;;;;;5052928;28;20572;-76
2021/09/29 02:42:10;;;;;;;3.97;1.87;;;14.10;99.90;;;;;;5053236;28;20624;-76
2021/09/29 02:44:35;;;;;;;3.33;1.53;;;14.10;99.90;;;;;;5053360;28;20684;-76
2021/09/29 02:47:01;;;;;;;3.07;1.40;;;14.10;99.90;;;;;;5056551;28;20582;-76
2021/09/29 02:49:27;;;;;;;7.20;1.47;;;14.10;99.90;;;;;;5054172;28;20169;-76
2021/09/29 02:51:53;;;;;;;3.87;2.00;;;14.10;99.90;;;;;;5053016;28;20621;-76
2021/09/29 02:54:19;;;;;;;4.18;1.70;;;14.10;99.90;;;;;;5053134;28;20270;-76
2021/09/29 02:56:45;;;;;;;5.23;1.93;;;14.10;99.90;;;;;;5052773;28;20620;-77
2021/09/29 02:59:11;;;;;;;7.17;1.57;;;14.10;99.90;;;;;;5051312;28;20575;-76
2021/09/29 03:01:40;;;;;;;4.60;1.53;;;14.10;99.90;;;;;;5052939;28;20560;-76
2021/09/29 03:04:07;;;;;;;3.83;1.77;;;14.10;99.90;;;;;;5052602;28;20280;-76
2021/09/29 03:06:33;;;;;;;3.40;1.65;;;14.00;99.90;;;;;;5052809;28;20569;-76
2021/09/29 03:09:00;;;;;;;5.82;1.48;;;14.10;99.90;;;;;;5052353;28;20201;-76
2021/09/29 03:11:27;;;;;;;2.80;1.60;;;14.00;99.90;;;;;;5052828;28;20246;-76
2021/09/29 03:13:53;;;;;;;4.90;2.20;;;14.00;99.90;;;;;;5052429;28;20661;-76
2021/09/29 03:16:19;;;;;;;5.50;2.23;;;14.00;99.90;;;;;;5052438;28;20649;-76
2021/09/29 03:18:47;;;;;;;5.00;1.85;;;14.00;99.90;;;;;;5052336;28;20884;-76
2021/09/29 03:21:13;;;;;;;4.40;1.45;;;14.00;99.90;;;;;;5052406;28;20520;-76
2021/09/29 03:23:39;;;;;;;5.50;2.60;;;14.00;99.90;;;;;;5052022;28;20321;-76
2021/09/29 03:26:04;;;;;;;4.73;1.53;;;14.00;99.90;;;;;;5055187;28;20208;-76
2021/09/29 03:28:30;;;;;;;3.73;1.77;;;13.90;99.90;;;;;;5051751;28;20166;-76
2021/09/29 03:30:56;;;;;;;7.97;1.60;;;14.00;99.90;;;;;;5052100;28;20169;-76
2021/09/29 03:33:22;;;;;;;4.80;2.20;;;13.90;99.90;;;;;;5051979;28;20200;-76
2021/09/29 03:35:48;;;;;;;3.17;1.67;;;13.90;99.90;;;;;;5052394;28;20168;-76
2021/09/29 03:38:14;;;;;;;5.17;2.37;;;13.90;99.90;;;;;;5052298;28;20165;-76
2021/09/29 03:40:39;;;;;;;4.30;1.60;;;13.90;99.90;;;;;;5051791;28;20260;-76
2021/09/29 03:43:05;;;;;;;9.43;1.97;;;13.90;99.90;;;;;;5052126;28;20194;-76
2021/09/29 03:45:31;;;;;;;3.00;1.70;;;13.90;99.90;;;;;;5050899;28;20563;-76
2021/09/29 03:47:57;;;;;;;7.10;2.03;;;13.90;99.90;;;;;;5052350;28;20211;-76
2021/09/29 03:50:22;;;;;;;3.33;2.00;;;13.90;99.90;;;;;;5051451;28;20586;-76
2021/09/29 03:52:49;;;;;;;7.80;1.83;;;13.80;99.90;;;;;;5052022;28;20189;-76
2021/09/29 03:55:15;;;;;;;7.32;2.38;;;13.80;99.90;;;;;;5050572;28;20560;-76
2021/09/29 03:57:41;;;;;;;3.77;1.47;;;13.80;99.90;;;;;;5052169;28;20165;-76
2021/09/29 04:00:10;;;;;;;6.93;3.30;;;13.90;99.90;;;;;;5051536;28;20176;-76
2021/09/29 04:02:36;;;;;;;3.05;1.95;;;13.80;99.90;;;;;;5056571;28;20175;-76
2021/09/29 04:05:03;;;;;;;1.95;1.70;;;13.80;99.90;;;;;;5051939;28;20209;-76
2021/09/29 04:07:29;;;;;;;3.30;1.50;;;13.80;99.90;;;;;;5050081;28;20173;-76
2021/09/29 04:09:55;;;;;;;5.10;2.10;;;13.80;99.90;;;;;;5049213;28;20172;-76
2021/09/29 04:12:21;;;;;;;3.63;1.93;;;13.80;99.90;;;;;;5048683;28;20585;-76
2021/09/29 04:14:51;;;;;;;3.90;1.60;;;13.80;99.90;;;;;;5049627;28;20212;-76
2021/09/29 04:17:17;;;;;;;3.38;1.60;;;13.80;99.90;;;;;;5049488;28;20244;-75
2021/09/29 04:19:42;;;;;;;2.97;1.40;;;13.80;99.90;;;;;;5049683;28;20227;-76
2021/09/29 04:22:10;;;;;;;5.53;1.93;;;13.80;99.90;;;;;;5050783;28;20169;-76
2021/09/29 04:24:40;;;;;;;5.77;2.33;;;13.90;99.90;;;;;;5051393;28;20209;-76
2021/09/29 04:27:08;;;;;;;3.22;2.45;;;13.80;99.90;;;;;;5051405;28;20658;-75
2021/09/29 04:29:37;;;;;;;4.38;2.13;;;13.80;99.90;;;;;;5051286;28;20532;-76
2021/09/29 04:32:05;;;;;;;4.60;1.40;;;13.90;99.90;;;;;;5051318;28;20169;-75
2021/09/29 04:34:30;;;;;;;5.55;1.90;;;13.90;99.90;;;;;;5073684;23;20300;-76
2021/09/29 04:36:56;;;;;;;4.37;1.80;;;13.90;99.90;;;;;;5051112;28;20245;-76
2021/09/29 04:39:22;;;;;;;3.47;2.10;;;13.90;99.90;;;;;;5050296;28;20161;-76
2021/09/29 04:41:48;;;;;;;3.70;2.03;;;13.90;99.90;;;;;;5055503;28;20173;-76
2021/09/29 04:44:13;;;;;;;3.60;1.67;;;13.90;99.90;;;;;;5055410;28;20569;-76
2021/09/29 04:46:39;;;;;;;5.10;2.03;;;13.90;99.90;;;;;;5055274;28;20529;-76
2021/09/29 04:49:05;;;;;;;7.00;2.00;;;13.90;99.90;;;;;;5054107;28;20196;-76
2021/09/29 04:51:31;;;;;;;3.90;1.97;;;13.90;99.90;;;;;;5054290;28;20165;-76
2021/09/29 04:53:56;;;;;;;3.70;2.13;;;13.90;99.90;;;;;;5060841;28;20201;-77
2021/09/29 04:56:22;;;;;;;4.53;2.43;;;13.90;99.90;;;;;;5055247;28;20212;-77
2021/09/29 04:58:48;;;;;;;4.07;1.57;;;13.90;99.90;;;;;;5055270;28;20196;-77
2021/09/29 05:01:13;;;;;;;5.03;2.20;;;13.90;99.90;;;;;;5054603;28;20534;-76
2021/09/29 05:03:40;;;;;;;2.73;1.70;;;13.90;99.90;;;;;;5054893;28;20631;-78
2021/09/29 05:06:05;;;;;;;5.30;1.77;;;13.90;99.90;;;;;;5055563;28;20555;-78
2021/09/29 05:08:34;;;;;;;6.53;2.23;;;13.90;99.90;;;;;;5055866;28;20578;-78
2021/09/29 05:11:14;;;;;;;4.75;2.20;;;13.90;99.90;;;;;;5070896;28;20607;-76
2021/09/29 05:13:40;;;;;;;6.75;2.22;;;13.90;99.90;;;;;;5056104;28;20184;-78
2021/09/29 05:16:06;;;;;;;2.57;1.60;;;13.90;99.90;;;;;;5055367;28;20169;-78
2021/09/29 05:18:31;;;;;;;5.00;2.50;;;13.90;99.90;;;;;;5030697;28;20185;-78
2021/09/29 05:20:57;;;;;;;3.50;1.73;;;13.90;99.90;;;;;;5064040;28;20177;-79
2021/09/29 05:23:23;;;;;;;2.00;1.30;;;13.90;99.90;;;;;;5058969;28;20664;-78
2021/09/29 05:25:49;;;;;;;5.57;2.28;;;14.00;99.90;;;;;;5052442;28;20717;-77
2021/09/29 05:28:23;;;;;;;6.53;2.10;;;13.90;99.90;;;;;;5054451;28;20338;-78
2021/09/29 05:30:49;;;;;;;4.30;2.00;;;13.90;99.90;;;;;;5039230;28;20576;-77
2021/09/29 05:33:14;;;;;;;4.70;2.30;;;14.00;99.90;;;;;;5039937;28;20587;-77
2021/09/29 05:35:40;;;;;;;5.00;1.60;;;14.00;99.90;;;;;;5054514;28;20572;-77
2021/09/29 05:38:06;;;;;;;4.43;1.63;;;14.10;99.90;;;;;;5054331;28;20176;-76
2021/09/29 05:40:32;;;;;;;3.20;2.00;;;14.10;99.90;;;;;;5054029;28;20252;-76
2021/09/29 05:42:58;;;;;;;5.47;2.90;;;14.10;99.90;;;;;;5052974;28;20213;-76
2021/09/29 05:45:23;;;;;;;3.57;2.17;;;14.20;99.90;;;;;;5054218;28;20638;-76
2021/09/29 05:47:49;;;;;;;3.73;2.53;;;14.20;99.90;;;;;;5054144;28;20169;-76
2021/09/29 05:50:15;;;;;;;4.13;2.10;;;14.30;99.90;;;;;;5036246;28;20205;-76
2021/09/29 05:52:41;;;;;;;4.53;1.50;;;14.30;99.90;;;;;;5054249;28;20165;-80
2021/09/29 05:55:07;;;;;;;3.57;1.63;;;14.40;99.90;;;;;;5056165;28;20598;-81
2021/09/29 05:57:33;;;;;;;7.27;2.10;;;14.50;99.90;;;;;;5071607;28;20181;-81
2021/09/29 05:59:59;;;;;;;3.47;1.40;;;14.50;99.90;;;;;;5054537;28;20571;-81
2021/09/29 06:02:24;;;;;;;2.60;1.40;;;14.70;99.90;;;;;;5055240;28;20503;-81
2021/09/29 06:04:52;;;;;;;4.10;2.17;;;14.80;99.90;;;;;;5054425;28;20212;-81
2021/09/29 06:07:24;;;;;;;2.92;1.55;;;14.90;99.90;;;;;;5042154;28;20533;-81
2021/09/29 06:09:50;;;;;;;4.77;1.97;;;15.00;99.90;;;;;;5052569;28;20188;-80
2021/09/29 06:12:16;;;;;;;3.70;1.80;;;15.10;99.90;;;;;;5053862;28;20918;-79
2021/09/29 06:14:49;;;;;;;5.80;1.37;;;15.10;99.90;;;;;;5053628;28;20208;-80
2021/09/29 06:17:37;;;;;;;2.90;1.40;;;15.20;99.90;;;;;;5053985;28;20911;-80
2021/09/29 06:20:05;;;;;;;3.50;1.30;;;15.20;99.90;;;;;;5052913;28;20582;-80
2021/09/29 06:22:31;;;;;;;4.30;1.67;;;15.20;99.90;;;;;;5052336;28;20579;-80
2021/09/29 06:24:57;;;;;;;4.50;1.60;;;15.20;99.90;;;;;;5052156;28;20653;-80
2021/09/29 06:27:23;;;;;;;4.93;1.90;;;15.20;99.90;;;;;;5035804;28;20619;-80
2021/09/29 06:29:49;;;;;;;4.90;1.93;;;15.20;99.90;;;;;;5053273;28;20291;-81
2021/09/29 06:32:18;;;;;;;7.73;2.40;;;15.10;99.90;;;;;;5057484;28;20172;-80
2021/09/29 06:34:44;;;;;;;7.77;2.67;;;15.10;99.90;;;;;;5054255;28;20611;-81
2021/09/29 06:37:09;;;;;;;10.47;2.23;;;15.10;99.90;;;;;;5060852;28;20572;-80
2021/09/29 06:39:35;;;;;;;5.43;1.87;;;15.00;99.90;;;;;;5063674;28;20260;-80
2021/09/29 06:42:01;;;;;;;7.40;2.47;;;15.00;99.90;;;;;;5062834;28;20180;-80
2021/09/29 06:44:28;;;;;;;7.00;2.60;;;14.90;99.90;;;;;;5070852;28;20205;-79
2021/09/29 06:46:54;;;;;;;5.60;1.80;;;14.80;99.90;;;;;;5075028;28;20161;-80
2021/09/29 06:49:20;;;;;;;4.05;1.50;;;14.80;99.90;;;;;;5072749;28;20157;-80
2021/09/29 06:51:46;;;;;;;4.13;2.10;;;14.70;99.90;;;;;;5076993;28;20172;-79
2021/09/29 06:54:12;;;;;;;2.27;1.30;;;14.70;99.90;;;;;;5073449;28;20200;-79
2021/09/29 06:56:39;;;;;;;3.80;1.97;;;14.70;99.90;;;;;;5072009;28;20176;-79
2021/09/29 06:59:05;;;;;;;6.60;2.37;;;14.60;99.90;;;;;;5065979;28;20169;-79
2021/09/29 07:01:31;;;;;;;4.20;2.27;;;14.50;99.90;;;;;;5046384;28;20590;-79
2021/09/29 07:03:56;;;;;;;3.87;2.20;;;14.40;99.90;;;;;;5067526;28;20212;-79
2021/09/29 07:06:22;;;;;;;5.40;2.90;;;14.40;99.90;;;;;;5069791;28;20573;-80
2021/09/29 07:08:48;;;;;;;3.93;1.80;;;14.40;99.90;;;;;;5062285;28;20162;-79
2021/09/29 07:11:16;;;;;;;3.60;2.20;;;14.30;99.90;;;;;;5053009;28;20559;-79
2021/09/29 07:13:42;;;;;;;2.73;1.80;;;14.30;99.90;;;;;;5054870;28;20193;-79
2021/09/29 07:16:07;;;;;;;3.43;1.80;;;14.30;99.90;;;;;;5053437;28;20605;-79
2021/09/29 07:18:35;;;;;;;3.93;2.20;;;14.30;99.90;;;;;;5057252;28;20513;-79
2021/09/29 07:21:01;;;;;;;2.90;1.70;;;14.30;99.90;;;;;;5060436;28;20306;-79
2021/09/29 07:23:26;;;;;;;5.97;2.57;;;14.30;99.90;;;;;;5061578;28;20646;-79
2021/09/29 07:25:52;;;;;;;6.60;1.93;;;14.40;99.90;;;;;;5059316;28;20584;-78
2021/09/29 07:28:18;;;;;;;5.53;2.03;;;14.40;99.90;;;;;;5068966;28;20169;-79
2021/09/29 07:30:45;;;;;;;6.03;3.17;;;14.40;99.90;;;;;;5071095;28;20572;-79
2021/09/29 07:33:13;;;;;;;4.20;2.10;;;14.50;99.90;;;;;;5065177;28;20564;-79
2021/09/29 07:35:40;;;;;;;5.75;2.20;;;14.50;99.90;;;;;;5069624;28;20666;-79
2021/09/29 07:38:06;;;;;;;3.40;1.85;;;14.50;99.90;;;;;;5067361;28;20165;-79
2021/09/29 07:40:32;;;;;;;6.28;2.20;;;14.50;99.90;;;;;;5066100;28;20173;-79
2021/09/29 07:42:58;;;;;;;4.03;3.08;;;14.60;99.90;;;;;;5066368;28;20165;-78
2021/09/29 07:45:24;;;;;;;4.80;2.77;;;14.60;99.90;;;;;;5068887;28;20227;-78
2021/09/29 07:47:52;;;;;;;7.20;2.27;;;14.60;99.90;;;;;;5068135;28;20591;-78
2021/09/29 07:50:19;;;;;;;7.07;2.45;;;14.60;99.90;;;;;;5065994;28;20575;-78
2021/09/29 07:52:45;;;;;;;4.30;2.70;;;14.60;99.90;;;;;;5067472;28;20177;-78
2021/09/29 07:55:12;;;;;;;6.73;3.43;;;14.50;99.90;;;;;;5065061;28;20603;-77
2021/09/29 07:57:40;;;;;;;4.07;3.17;;;14.50;99.90;;;;;;5045905;28;20614;-78
2021/09/29 08:00:07;;;;;;;4.90;3.07;;;14.50;99.90;;;;;;5060990;28;20588;-78
2021/09/29 08:02:38;;;;;;;6.10;3.38;;;14.50;99.90;;;;;;5061106;28;20576;-77
2021/09/29 08:05:05;;;;;;;8.13;3.00;;;14.50;99.90;;;;;;5064867;28;20211;-78
2021/09/29 08:07:31;;;;;;;6.73;2.57;;;14.40;99.90;;;;;;5063834;28;20582;-78
2021/09/29 08:09:57;;;;;;;7.13;2.50;;;14.40;99.90;;;;;;5066766;28;21110;-78
2021/09/29 08:12:23;;;;;;;6.47;2.87;;;14.40;99.90;;;;;;5068789;28;20591;-78
2021/09/29 08:14:49;;;;;;;5.30;3.10;;;14.50;99.90;;;;;;5069143;28;20607;-77
2021/09/29 08:17:15;;;;;;;7.30;4.00;;;14.40;99.90;;;;;;5070243;28;20176;-77
2021/09/29 08:19:40;;;;;;;3.23;2.07;;;14.40;99.90;;;;;;5070956;28;20177;-78
2021/09/29 08:22:09;;;;;;;5.77;3.07;;;14.40;99.90;;;;;;5051244;28;20571;-78
2021/09/29 08:24:46;;;;;;;5.63;2.40;;;14.40;99.90;;;;;;5070860;28;20630;-79
2021/09/29 08:27:28;;;;;;;4.27;3.40;;;14.40;99.90;;;;;;5070490;28;20590;-79
2021/09/29 08:32:58;;;;;;;5.10;3.77;;;14.40;99.90;;;;;;5067536;28;20595;-79
2021/09/29 08:35:33;;;;;;;4.63;3.25;;;14.40;99.90;;;;;;5066760;28;20718;-78
2021/09/29 08:40:29;;;;;;;6.80;2.03;;;14.50;99.90;;;;;;5069290;28;20586;-79
2021/09/29 08:58:25;;;;;;;4.70;2.00;;;15.80;99.90;;;;;;5073780;28;20571;-79
2021/09/29 09:17:36;;;;;;;3.40;1.67;;;18.80;99.90;;;;;;5063271;28;21167;-78
2021/09/29 09:20:20;;;;;;;1.97;1.03;;;18.90;99.90;;;;;;5058566;28;20609;-78
2021/09/29 09:22:51;;;;;;;3.37;1.23;;;18.90;99.90;;;;;;5064001;28;20564;-78
2021/09/29 09:25:50;;;;;;;2.87;1.40;;;18.80;99.90;;;;;;5063539;28;20642;-78
2021/09/29 09:28:29;;;;;;;3.03;1.00;;;18.70;99.90;;;;;;5024131;28;20588;-78
2021/09/29 09:31:08;;;;;;;5.83;2.80;;;18.50;99.90;;;;;;5067637;28;20642;-78
2021/09/29 09:33:49;;;;;;;3.00;1.23;;;18.40;99.90;;;;;;5065939;28;20603;-77
2021/09/29 09:36:34;;;;;;;1.80;1.33;;;18.20;99.90;;;;;;5067508;28;20567;-78
2021/09/29 09:39:05;;;;;;;2.30;1.27;;;18.00;99.90;;;;;;5067337;28;20582;-78
2021/09/29 09:41:31;;;;;;;4.60;2.10;;;17.90;99.90;;;;;;5061793;28;20564;-78
2021/09/29 09:44:00;;;;;;;6.03;2.53;;;17.80;99.90;;;;;;5042927;28;20643;-78
2021/09/29 09:46:27;;;;;;;3.80;2.40;;;17.60;99.90;;;;;;5062019;28;20595;-77
2021/09/29 09:49:19;;;;;;;3.00;1.33;;;17.40;99.90;;;;;;5066030;28;20571;-77
2021/09/29 09:51:51;;;;;;;2.10;1.10;;;17.20;99.90;;;;;;5061049;28;20587;-78
2021/09/29 09:54:18;;;;;;;4.30;0.80;;;17.00;99.90;;;;;;5061825;28;20960;-77
2021/09/29 09:56:53;;;;;;;1.97;1.13;;;16.70;99.90;;;;;;5064300;28;20599;-78
2021/09/29 09:59:18;;;;;;;2.40;0.90;;;16.40;99.90;;;;;;5064785;28;20571;-77
2021/09/29 10:01:46;;;;;;;1.30;0.70;;;16.20;99.90;;;;;;5063818;28;20587;-76
2021/09/29 10:04:14;;;;;;;3.00;1.00;;;16.00;99.90;;;;;;5066038;28;20722;-76
2021/09/29 10:06:40;;;;;;;1.80;0.90;;;15.80;99.90;;;;;;5064600;28;20578;-76
2021/09/29 10:09:21;;;;;;;2.43;0.80;;;15.80;99.90;;;;;;5063775;28;20586;-76
2021/09/29 10:11:59;;;;;;;3.70;1.57;;;15.80;99.90;;;;;;5062881;28;20587;-77
2021/09/29 10:14:42;;;;;;;3.10;1.10;;;15.90;99.90;;;;;;5064315;28;21220;-77
2021/09/29 10:22:54;;;;;;;1.73;0.60;;;16.30;99.90;;;;;;5066387;28;20575;-78
2021/09/29 10:28:13;;;;;;;1.90;0.83;;;16.40;99.90;;;;;;5071851;28;20570;-78
2021/09/29 10:30:52;;;;;;;2.13;0.70;;;16.50;99.90;;;;;;5035338;28;20603;-75
2021/09/29 10:33:26;;;;;;;1.90;0.87;;;16.60;99.90;;;;;;5053312;28;20559;-75
2021/09/29 10:36:19;;;;;;;2.33;0.93;;;16.70;99.90;;;;;;5066407;22;20758;-81
2021/09/29 11:04:24;;;;;;;1.30;0.50;;;16.90;99.90;;;;;;5013828;28;20656;-80
2021/09/29 11:09:24;;;;;;;1.30;0.60;;;16.80;99.90;;;;;;5014001;28;20573;-80
2021/09/29 11:31:25;;;;;;;1.20;0.60;;;19.50;99.90;;;;;;5007073;28;20592;-80
2021/09/29 11:34:09;;;;;;;1.47;0.50;;;19.70;99.90;;;;;;5014441;28;20576;-80
2021/09/29 12:11:39;;;;;;;1.47;0.80;;;19.60;99.90;;;;;;5011599;28;20656;-80
2021/09/29 12:14:16;;;;;;;1.47;0.73;;;19.40;99.90;;;;;;5011857;28;20581;-80
2021/09/29 12:16:42;;;;;;;5.93;0.87;;;19.10;99.90;;;;;;5011904;28;20600;-80
2021/09/29 12:19:33;;;;;;;3.00;1.50;;;18.80;99.90;;;;;;5011808;28;20619;-80
2021/09/29 12:22:03;;;;;;;2.40;1.97;;;18.60;99.90;;;;;;4994598;28;20573;-80
2021/09/29 12:24:35;;;;;;;4.07;1.47;;;18.40;99.90;;;;;;5029038;28;20648;-81
2021/09/29 12:27:02;;;;;;;1.97;1.20;;;18.20;99.90;;;;;;5013675;28;20593;-80
2021/09/29 12:35:04;;;;;;;1.40;0.70;;;18.30;99.90;;;;;;5012085;28;20599;-80
2021/09/29 12:37:30;;;;;;;2.20;0.60;;;18.60;99.90;;;;;;5013185;28;20569;-78
2021/09/29 12:39:57;;;;;;;1.40;0.70;;;19.00;99.90;;;;;;5028670;28;20976;-80
2021/09/29 12:42:34;;;;;;;3.90;1.20;;;19.40;99.90;;;;;;5012899;28;20573;-80
2021/09/29 12:45:00;;;;;;;3.13;0.80;;;19.60;99.90;;;;;;5029110;28;20672;-80
2021/09/29 12:50:10;;;;;;;2.50;1.20;;;20.20;99.90;;;;;;5013569;28;20599;-80
2021/09/29 12:52:38;;;;;;;1.50;0.70;;;20.30;99.90;;;;;;5000087;28;20580;-80
2021/09/29 12:55:05;;;;;;;1.20;0.63;;;20.50;99.90;;;;;;5013227;28;20782;-80
2021/09/29 12:57:31;;;;;;;1.67;0.77;;;20.60;99.90;;;;;;5012764;28;20589;-80
2021/09/29 13:00:00;;;;;;;2.43;0.90;;;20.70;99.90;;;;;;5014424;28;20562;-80
2021/09/29 13:02:26;;;;;;;3.00;1.40;;;20.70;99.90;;;;;;4999119;28;21008;-81
2021/09/29 13:04:53;;;;;;;1.53;0.80;;;20.80;99.90;;;;;;5014778;28;20720;-80
2021/09/29 13:07:19;;;;;;;1.67;0.80;;;20.80;99.90;;;;;;5020355;28;20267;-79
2021/09/29 13:09:45;;;;;;;2.70;0.60;;;20.80;99.90;;;;;;5016163;28;20566;-80
2021/09/29 13:12:11;;;;;;;1.73;0.70;;;20.70;99.90;;;;;;5032409;28;20585;-80
2021/09/29 13:14:38;;;;;;;1.30;0.70;;;20.50;99.90;;;;;;5015588;28;20921;-79
2021/09/29 13:17:06;;;;;;;3.27;0.80;;;20.40;99.90;;;;;;5017336;28;20971;-81
2021/09/29 13:19:40;;;;;;;1.60;0.70;;;20.20;99.90;;;;;;5014723;28;20566;-80
2021/09/29 13:22:16;;;;;;;2.40;0.50;;;20.10;99.90;;;;;;5023176;28;20573;-82
2021/09/29 13:35:13;;;;;;;3.50;0.70;;;18.20;99.90;;;;;;5017224;28;20162;-80
2021/09/29 13:38:12;;;;;;;2.50;0.83;;;17.00;99.90;;;;;;5017629;28;20573;-82
2021/09/29 13:40:40;;;;;;;2.73;0.87;;;16.60;99.90;;;;;;5033609;28;20573;-81
2021/09/29 13:43:07;;;;;;;2.57;0.60;;;16.40;99.90;;;;;;5017941;28;20584;-82
2021/09/29 13:45:33;;;;;;;2.03;0.80;;;16.10;99.90;;;;;;5016452;28;20671;-81
2021/09/29 13:47:59;;;;;;;2.03;0.60;;;15.90;99.90;;;;;;5020160;28;20894;-81
2021/09/29 13:50:25;;;;;;;2.70;0.60;;;15.80;99.90;;;;;;5018879;28;20656;-81
2021/09/29 13:52:51;;;;;;;2.80;0.60;;;15.70;99.90;;;;;;5017884;28;21155;-78
2021/09/29 13:55:20;;;;;;;1.93;0.60;;;15.70;99.90;;;;;;5017093;28;20203;-80
2021/09/29 13:57:53;;;;;;;2.07;0.60;;;15.70;99.90;;;;;;5018539;28;20202;-82
2021/09/29 14:00:26;;;;;;;1.70;0.80;;;15.80;99.90;;;;;;5021376;28;20615;-81
2021/09/29 14:30:16;;;;;;;2.50;0.90;;;16.40;99.90;;;;;;5013140;28;20954;-79
2021/09/29 14:32:55;;;;;;;1.83;0.97;;;16.40;99.90;;;;;;5013892;28;20662;-80
2021/09/29 14:35:21;;;;;;;1.50;0.60;;;16.50;99.90;;;;;;5028803;28;20719;-80
2021/09/29 14:37:47;;;;;;;4.63;0.77;;;16.50;99.90;;;;;;5013544;28;20609;-79
2021/09/29 14:40:13;;;;;;;1.80;0.80;;;16.50;99.90;;;;;;5014198;28;20196;-80
2021/09/29 14:42:39;;;;;;;4.30;0.90;;;16.60;99.90;;;;;;5015318;28;20657;-79
2021/09/29 14:45:05;;;;;;;1.90;1.00;;;16.60;99.90;;;;;;5013823;28;21087;-79
2021/09/29 14:47:31;;;;;;;2.10;0.97;;;16.60;99.90;;;;;;5015477;28;20162;-82
2021/09/29 14:49:56;;;;;;;3.63;1.00;;;16.70;99.90;;;;;;5014387;28;21186;-80
2021/09/29 14:52:23;;;;;;;2.80;0.70;;;16.70;99.90;;;;;;5013100;28;20603;-81
2021/09/29 14:54:48;;;;;;;1.90;0.80;;;16.70;99.90;;;;;;5011799;28;20178;-81
2021/09/29 14:57:14;;;;;;;1.43;0.70;;;16.80;99.90;;;;;;5016764;28;20608;-82
2021/09/29 14:59:41;;;;;;;4.50;0.90;;;16.80;99.90;;;;;;4996049;28;20176;-82
2021/09/29 15:02:11;;;;;;;3.93;1.00;;;16.80;99.90;;;;;;5013698;28;20565;-80
2021/09/29 15:04:37;;;;;;;4.40;1.30;;;16.80;99.90;;;;;;4998028;28;20626;-80
2021/09/29 15:07:03;;;;;;;3.53;1.07;;;16.80;99.90;;;;;;5013483;28;20578;-79
2021/09/29 15:09:29;;;;;;;2.80;0.83;;;16.80;99.90;;;;;;4995406;28;20620;-79
2021/09/29 15:11:55;;;;;;;2.10;1.23;;;16.90;99.90;;;;;;5026354;28;20999;-79
2021/09/29 15:14:46;;;;;;;3.30;1.20;;;16.90;99.90;;;;;;4995182;28;20585;-79
2021/09/29 15:17:17;;;;;;;1.70;0.90;;;17.00;99.90;;;;;;5011466;28;20612;-79
2021/09/29 15:24:48;;;;;;;4.20;0.90;;;16.90;99.90;;;;;;4992065;28;20624;-79
2021/09/29 15:49:13;;;;;;;1.43;0.60;;;16.70;99.90;;;;;;5011969;28;20565;-79
2021/09/29 15:51:46;;;;;;;1.47;0.60;;;16.70;99.90;;;;;;5011229;28;21012;-79
2021/09/29 15:54:29;;;;;;;2.80;0.60;;;16.80;99.90;;;;;;4978142;28;21159;-80
2021/09/29 16:02:42;;;;;;;1.80;0.70;;;16.90;99.90;;;;;;5012711;28;20569;-80
2021/09/29 16:05:19;;;;;;;2.20;0.93;;;17.00;99.90;;;;;;4995607;28;20653;-80
2021/09/29 16:07:54;;;;;;;2.63;0.70;;;17.00;99.90;;;;;;4994789;28;20573;-80
2021/09/29 16:16:01;;;;;;;1.27;0.60;;;16.90;99.90;;;;;;4993693;28;21192;-80
2021/09/29 16:18:48;;;;;;;2.33;0.90;;;16.80;99.90;;;;;;5026449;28;20590;-80
2021/09/29 16:31:58;;;;;;;4.00;1.70;;;16.40;99.90;;;;;;5008844;28;20608;-80
2021/09/29 16:34:32;;;;;;;2.50;1.77;;;16.30;99.90;;;;;;5010399;28;20562;-80
2021/09/29 16:36:58;;;;;;;3.77;1.50;;;16.30;99.90;;;;;;5011435;28;20679;-81
2021/09/29 16:39:24;;;;;;;3.10;1.33;;;16.20;99.90;;;;;;4999094;28;20946;-80